Time;durP1;ratioP1;P1;durP2;ratioP2;P2;SDS_P1;SDS_P2;PMS_P1;PMS_P2;Temp;Humidity;BMP_temperature;BMP_pressure;BME280_temperature;BME280_humidity;BME280_pressure;Samples;Min_cycle;Max_cycle;Signal;HPM_P1;HPM_P2
2022/07/14 00:00:06;;;;;;;3.40;1.80;;;;;;;;;;509551;29;1472;-89
2022/07/14 00:00:21;;;;;;;3.33;1.80;;;;;;;;;;510044;29;1378;-88
2022/07/14 00:00:37;;;;;;;2.73;1.80;;;;;;;;;;511941;29;1376;-89
2022/07/14 00:00:53;;;;;;;2.97;1.80;;;;;;;;;;510120;29;1165;-89
2022/07/14 00:01:09;;;;;;;2.70;1.70;;;;;;;;;;509995;29;1241;-88
2022/07/14 00:01:24;;;;;;;4.35;1.77;;;;;;;;;;509871;29;849;-89
2022/07/14 00:01:39;;;;;;;4.90;1.80;;;;;;;;;;509661;29;905;-88
2022/07/14 00:01:55;;;;;;;2.60;1.67;;;;;;;;;;509491;29;1055;-88
2022/07/14 00:02:10;;;;;;;2.40;1.70;;;;;;;;;;509433;29;1294;-89
2022/07/14 00:02:26;;;;;;;2.43;1.80;;;;;;;;;;509115;29;913;-88
2022/07/14 00:02:41;;;;;;;2.65;1.80;;;;;;;;;;507555;29;1278;-88
2022/07/14 00:02:57;;;;;;;2.80;1.90;;;;;;;;;;509419;29;1228;-88
2022/07/14 00:03:12;;;;;;;3.70;1.80;;;;;;;;;;509644;29;1113;-89
2022/07/14 00:03:29;;;;;;;3.80;1.90;;;;;;;;;;510197;29;817;-89
2022/07/14 00:03:44;;;;;;;2.72;1.80;;;;;;;;;;509962;29;924;-88
2022/07/14 00:04:00;;;;;;;3.42;1.77;;;;;;;;;;509771;29;1305;-89
2022/07/14 00:04:15;;;;;;;4.10;1.83;;;;;;;;;;509974;29;770;-88
2022/07/14 00:04:30;;;;;;;4.40;1.80;;;;;;;;;;509990;29;813;-88
2022/07/14 00:04:46;;;;;;;3.93;1.73;;;;;;;;;;510026;29;988;-89
2022/07/14 00:05:01;;;;;;;3.90;1.80;;;;;;;;;;510046;29;1238;-88
2022/07/14 00:05:17;;;;;;;3.55;1.90;;;;;;;;;;510030;29;1381;-88
2022/07/14 00:05:35;;;;;;;3.35;1.70;;;;;;;;;;510095;29;860;-88
2022/07/14 00:05:50;;;;;;;4.38;1.75;;;;;;;;;;509884;29;884;-89
2022/07/14 00:06:06;;;;;;;4.00;1.90;;;;;;;;;;509953;29;1004;-88
2022/07/14 00:06:21;;;;;;;3.58;2.00;;;;;;;;;;510075;29;805;-89
2022/07/14 00:06:37;;;;;;;4.17;2.10;;;;;;;;;;511733;29;1202;-89
2022/07/14 00:06:52;;;;;;;4.40;1.88;;;;;;;;;;511904;29;1222;-88
2022/07/14 00:07:08;;;;;;;5.60;2.00;;;;;;;;;;509922;29;1307;-89
2022/07/14 00:07:23;;;;;;;4.70;2.10;;;;;;;;;;510180;29;976;-89
2022/07/14 00:07:39;;;;;;;2.70;2.00;;;;;;;;;;510039;29;1217;-89
2022/07/14 00:07:54;;;;;;;2.50;2.00;;;;;;;;;;510237;29;1289;-89
2022/07/14 00:08:10;;;;;;;3.10;1.83;;;;;;;;;;510041;29;1326;-89
2022/07/14 00:08:25;;;;;;;3.17;1.73;;;;;;;;;;507905;29;1430;-88
2022/07/14 00:08:43;;;;;;;3.45;1.90;;;;;;;;;;508357;29;829;-89
2022/07/14 00:08:59;;;;;;;4.50;2.17;;;;;;;;;;508717;29;885;-89
2022/07/14 00:09:14;;;;;;;4.37;2.10;;;;;;;;;;510098;29;1256;-89
2022/07/14 00:09:29;;;;;;;4.20;1.90;;;;;;;;;;507500;29;1194;-88
2022/07/14 00:09:45;;;;;;;4.38;2.00;;;;;;;;;;507922;29;1208;-88
2022/07/14 00:10:00;;;;;;;5.37;2.00;;;;;;;;;;508075;29;1298;-88
2022/07/14 00:10:16;;;;;;;4.78;2.03;;;;;;;;;;508082;29;1358;-88
2022/07/14 00:10:31;;;;;;;4.30;2.00;;;;;;;;;;508024;29;1249;-89
2022/07/14 00:10:47;;;;;;;4.05;1.98;;;;;;;;;;509416;29;1922;-88
2022/07/14 00:11:03;;;;;;;4.03;2.20;;;;;;;;;;509663;29;1290;-88
2022/07/14 00:11:19;;;;;;;3.55;2.20;;;;;;;;;;506678;29;1339;-89
2022/07/14 00:11:34;;;;;;;4.07;2.00;;;;;;;;;;506736;29;989;-89
2022/07/14 00:11:50;;;;;;;4.13;1.87;;;;;;;;;;510287;29;1411;-88
2022/07/14 00:12:05;;;;;;;3.35;1.80;;;;;;;;;;511139;29;833;-89
2022/07/14 00:12:21;;;;;;;4.80;1.90;;;;;;;;;;510129;29;1315;-89
2022/07/14 00:12:36;;;;;;;4.27;1.90;;;;;;;;;;508057;29;1303;-88
2022/07/14 00:12:52;;;;;;;4.20;1.83;;;;;;;;;;509623;29;2052;-89
2022/07/14 00:13:07;;;;;;;4.27;2.00;;;;;;;;;;510144;29;893;-88
2022/07/14 00:13:23;;;;;;;3.07;1.90;;;;;;;;;;510176;29;1289;-89
2022/07/14 00:13:38;;;;;;;3.13;1.90;;;;;;;;;;510515;29;1279;-89
2022/07/14 00:13:54;;;;;;;2.75;1.90;;;;;;;;;;512443;29;869;-89
2022/07/14 00:14:09;;;;;;;2.63;1.77;;;;;;;;;;511799;29;1311;-89
2022/07/14 00:14:25;;;;;;;2.60;1.80;;;;;;;;;;508337;29;1398;-89
2022/07/14 00:14:40;;;;;;;2.92;2.03;;;;;;;;;;508659;29;1378;-89
2022/07/14 00:14:55;;;;;;;3.30;2.10;;;;;;;;;;510359;29;1193;-88
2022/07/14 00:15:11;;;;;;;2.55;2.00;;;;;;;;;;508380;29;1173;-89
2022/07/14 00:15:27;;;;;;;2.73;1.93;;;;;;;;;;506577;29;1389;-89
2022/07/14 00:15:42;;;;;;;2.72;1.85;;;;;;;;;;506355;29;1238;-89
2022/07/14 00:15:58;;;;;;;3.17;1.88;;;;;;;;;;506441;29;846;-89
2022/07/14 00:16:13;;;;;;;3.30;1.90;;;;;;;;;;506287;29;1328;-89
2022/07/14 00:16:29;;;;;;;3.07;2.00;;;;;;;;;;506442;29;1334;-89
2022/07/14 00:16:45;;;;;;;3.15;2.08;;;;;;;;;;506467;29;1150;-88
2022/07/14 00:17:00;;;;;;;2.72;1.80;;;;;;;;;;506369;29;1366;-89
2022/07/14 00:17:15;;;;;;;3.43;2.00;;;;;;;;;;504518;29;1435;-88
2022/07/14 00:17:31;;;;;;;3.35;1.95;;;;;;;;;;506408;29;1291;-89
2022/07/14 00:17:46;;;;;;;2.70;1.80;;;;;;;;;;506353;29;1152;-89
2022/07/14 00:18:02;;;;;;;2.77;1.80;;;;;;;;;;508349;29;1186;-89
2022/07/14 00:18:18;;;;;;;3.17;1.77;;;;;;;;;;508433;29;967;-89
2022/07/14 00:18:33;;;;;;;2.95;1.70;;;;;;;;;;509801;29;1320;-88
2022/07/14 00:18:49;;;;;;;2.30;1.70;;;;;;;;;;508063;29;1206;-88
2022/07/14 00:19:04;;;;;;;2.42;1.80;;;;;;;;;;509879;29;1335;-89
2022/07/14 00:19:19;;;;;;;2.40;1.87;;;;;;;;;;508108;29;1248;-89
2022/07/14 00:19:35;;;;;;;2.57;1.90;;;;;;;;;;508274;29;832;-89
2022/07/14 00:19:50;;;;;;;2.45;1.90;;;;;;;;;;508084;29;818;-89
2022/07/14 00:20:06;;;;;;;2.87;1.80;;;;;;;;;;508311;29;1366;-89
2022/07/14 00:20:22;;;;;;;3.05;1.77;;;;;;;;;;508624;29;1431;-89
2022/07/14 00:20:37;;;;;;;2.55;1.60;;;;;;;;;;510268;29;1292;-89
2022/07/14 00:20:52;;;;;;;3.40;1.80;;;;;;;;;;510348;29;873;-89
2022/07/14 00:21:08;;;;;;;3.13;1.80;;;;;;;;;;510550;29;885;-88
2022/07/14 00:21:23;;;;;;;2.67;1.70;;;;;;;;;;510191;29;1333;-88
2022/07/14 00:21:38;;;;;;;2.70;1.77;;;;;;;;;;510225;29;1292;-88
2022/07/14 00:21:54;;;;;;;2.37;1.83;;;;;;;;;;510367;29;968;-88
2022/07/14 00:22:09;;;;;;;2.97;1.98;;;;;;;;;;510001;29;929;-88
2022/07/14 00:22:25;;;;;;;2.30;1.80;;;;;;;;;;508403;29;916;-89
2022/07/14 00:22:40;;;;;;;1.70;1.60;;;;;;;;;;510222;29;1350;-89
2022/07/14 00:22:56;;;;;;;2.97;1.80;;;;;;;;;;510360;29;939;-88
2022/07/14 00:23:11;;;;;;;3.70;1.80;;;;;;;;;;510593;29;1382;-89
2022/07/14 00:23:27;;;;;;;2.93;1.80;;;;;;;;;;512256;29;929;-89
2022/07/14 00:23:45;;;;;;;3.07;1.90;;;;;;;;;;512079;29;1253;-88
2022/07/14 00:24:00;;;;;;;4.13;1.95;;;;;;;;;;512154;29;920;-88
2022/07/14 00:24:16;;;;;;;4.85;2.00;;;;;;;;;;512092;29;960;-88
2022/07/14 00:24:31;;;;;;;3.57;1.90;;;;;;;;;;509998;29;1468;-89
2022/07/14 00:24:47;;;;;;;2.75;1.90;;;;;;;;;;509702;29;1513;-88
2022/07/14 00:25:03;;;;;;;3.00;1.90;;;;;;;;;;509435;29;1340;-88
2022/07/14 00:25:18;;;;;;;2.30;1.80;;;;;;;;;;507964;29;1263;-89
2022/07/14 00:25:34;;;;;;;2.57;1.80;;;;;;;;;;506695;29;1221;-89
2022/07/14 00:25:49;;;;;;;2.90;1.80;;;;;;;;;;507928;29;1266;-88
2022/07/14 00:26:04;;;;;;;2.42;1.80;;;;;;;;;;509743;29;1198;-89
2022/07/14 00:26:20;;;;;;;1.93;1.67;;;;;;;;;;505918;29;1179;-89
2022/07/14 00:26:35;;;;;;;2.37;1.80;;;;;;;;;;506036;29;822;-88
2022/07/14 00:26:51;;;;;;;2.90;1.85;;;;;;;;;;506042;29;846;-88
2022/07/14 00:27:06;;;;;;;3.40;1.93;;;;;;;;;;506233;29;873;-89
2022/07/14 00:27:22;;;;;;;3.85;1.95;;;;;;;;;;506456;29;988;-88
2022/07/14 00:27:37;;;;;;;3.73;1.93;;;;;;;;;;508167;29;909;-88
2022/07/14 00:27:53;;;;;;;3.17;1.90;;;;;;;;;;508535;29;882;-89
2022/07/14 00:28:09;;;;;;;2.83;1.83;;;;;;;;;;508423;29;1347;-88
2022/07/14 00:28:24;;;;;;;2.28;1.88;;;;;;;;;;510029;29;1256;-89
2022/07/14 00:28:40;;;;;;;2.97;1.90;;;;;;;;;;510102;29;1179;-89
2022/07/14 00:28:55;;;;;;;3.43;1.80;;;;;;;;;;510086;29;1414;-89
2022/07/14 00:29:11;;;;;;;2.60;1.80;;;;;;;;;;509958;29;1217;-89
2022/07/14 00:29:26;;;;;;;2.70;1.87;;;;;;;;;;510037;29;1016;-89
2022/07/14 00:29:42;;;;;;;3.28;1.80;;;;;;;;;;510083;29;1205;-89
2022/07/14 00:29:57;;;;;;;2.87;1.73;;;;;;;;;;510041;29;1372;-89
2022/07/14 00:30:12;;;;;;;3.33;1.80;;;;;;;;;;508134;29;1371;-88
2022/07/14 00:30:28;;;;;;;3.42;1.90;;;;;;;;;;508685;29;901;-88
2022/07/14 00:30:45;;;;;;;3.00;1.90;;;;;;;;;;507885;29;1907;-88
2022/07/14 00:31:05;;;;;;;3.47;2.03;;;;;;;;;;506022;29;1423;-89
2022/07/14 00:31:21;;;;;;;5.00;1.90;;;;;;;;;;508099;29;1328;-89
2022/07/14 00:31:36;;;;;;;5.00;1.97;;;;;;;;;;506052;29;1135;-88
2022/07/14 00:31:52;;;;;;;3.35;1.80;;;;;;;;;;506268;29;1376;-89
2022/07/14 00:32:07;;;;;;;2.87;1.80;;;;;;;;;;510238;29;1445;-89
2022/07/14 00:32:23;;;;;;;2.47;1.80;;;;;;;;;;510334;29;1200;-89
2022/07/14 00:32:39;;;;;;;2.50;1.90;;;;;;;;;;512102;29;1214;-89
2022/07/14 00:32:54;;;;;;;2.80;1.80;;;;;;;;;;512130;29;1345;-89
2022/07/14 00:33:10;;;;;;;3.05;1.80;;;;;;;;;;508445;29;1299;-89
2022/07/14 00:33:26;;;;;;;2.80;1.87;;;;;;;;;;508237;29;865;-89
2022/07/14 00:33:41;;;;;;;2.60;1.90;;;;;;;;;;508343;29;1273;-89
2022/07/14 00:33:58;;;;;;;2.47;1.90;;;;;;;;;;507873;29;880;-89
2022/07/14 00:34:13;;;;;;;2.67;1.92;;;;;;;;;;507606;29;1266;-89
2022/07/14 00:34:29;;;;;;;2.85;1.90;;;;;;;;;;508659;29;1077;-88
2022/07/14 00:34:44;;;;;;;2.63;1.90;;;;;;;;;;508114;29;1676;-88
2022/07/14 00:34:59;;;;;;;2.73;1.90;;;;;;;;;;508168;29;846;-88
2022/07/14 00:35:15;;;;;;;2.63;1.90;;;;;;;;;;508030;29;992;-88
2022/07/14 00:35:31;;;;;;;1.97;1.73;;;;;;;;;;509637;29;1179;-89
2022/07/14 00:35:47;;;;;;;2.15;1.80;;;;;;;;;;509919;29;1365;-88
2022/07/14 00:36:02;;;;;;;3.20;1.88;;;;;;;;;;510178;29;912;-89
2022/07/14 00:36:18;;;;;;;3.92;1.90;;;;;;;;;;508085;29;1319;-89
2022/07/14 00:36:33;;;;;;;3.80;2.00;;;;;;;;;;508841;29;849;-89
2022/07/14 00:36:49;;;;;;;2.53;1.90;;;;;;;;;;510291;29;892;-88
2022/07/14 00:37:05;;;;;;;2.47;1.90;;;;;;;;;;510232;29;829;-88
2022/07/14 00:37:20;;;;;;;2.88;1.90;;;;;;;;;;507479;29;1277;-88
2022/07/14 00:37:36;;;;;;;2.88;1.95;;;;;;;;;;506708;29;901;-89
2022/07/14 00:37:51;;;;;;;2.73;1.93;;;;;;;;;;508197;29;1051;-89
2022/07/14 00:38:06;;;;;;;3.13;2.00;;;;;;;;;;508699;29;1004;-89
2022/07/14 00:38:22;;;;;;;3.15;2.00;;;;;;;;;;510354;29;869;-89
2022/07/14 00:38:37;;;;;;;2.53;1.90;;;;;;;;;;508411;29;1146;-88
2022/07/14 00:38:54;;;;;;;2.40;1.83;;;;;;;;;;508331;29;952;-89
2022/07/14 00:39:09;;;;;;;3.00;1.90;;;;;;;;;;508706;29;1035;-89
2022/07/14 00:39:26;;;;;;;3.70;1.97;;;;;;;;;;510054;29;1192;-88
2022/07/14 00:39:56;;;;;;;2.97;1.90;;;;;;;;;;510270;29;1451;-88
2022/07/14 00:40:12;;;;;;;3.53;2.00;;;;;;;;;;510123;29;1290;-89
2022/07/14 00:40:28;;;;;;;3.40;1.90;;;;;;;;;;510724;29;939;-89
2022/07/14 00:40:43;;;;;;;3.27;1.90;;;;;;;;;;512051;29;1204;-89
2022/07/14 00:40:59;;;;;;;3.03;2.00;;;;;;;;;;512233;29;845;-89
2022/07/14 00:41:15;;;;;;;2.90;1.90;;;;;;;;;;511712;28;1284;-89
2022/07/14 00:41:30;;;;;;;3.35;1.80;;;;;;;;;;510170;29;806;-88
2022/07/14 00:41:46;;;;;;;3.20;1.80;;;;;;;;;;510084;29;1224;-89
2022/07/14 00:42:01;;;;;;;2.72;1.90;;;;;;;;;;509991;29;885;-88
2022/07/14 00:42:26;;;;;;;2.53;1.90;;;;;;;;;;509914;29;1170;-89
2022/07/14 00:42:46;;;;;;;3.53;2.00;;;;;;;;;;508374;29;897;-88
2022/07/14 00:43:02;;;;;;;4.82;2.13;;;;;;;;;;508038;29;963;-89
2022/07/14 00:43:17;;;;;;;4.65;2.05;;;;;;;;;;509722;29;1220;-89
2022/07/14 00:43:33;;;;;;;4.17;1.90;;;;;;;;;;510060;29;817;-89
2022/07/14 00:43:49;;;;;;;4.75;2.00;;;;;;;;;;509845;29;1201;-89
2022/07/14 00:44:04;;;;;;;3.47;2.05;;;;;;;;;;509901;29;830;-89
2022/07/14 00:44:19;;;;;;;4.07;2.10;;;;;;;;;;510077;29;1192;-89
2022/07/14 00:44:35;;;;;;;4.50;2.00;;;;;;;;;;510040;29;1192;-89
2022/07/14 00:44:50;;;;;;;4.15;1.90;;;;;;;;;;510164;29;964;-89
2022/07/14 00:45:09;;;;;;;4.00;2.00;;;;;;;;;;510147;29;1007;-89
2022/07/14 00:45:26;;;;;;;4.90;2.00;;;;;;;;;;510249;29;849;-89
2022/07/14 00:45:41;;;;;;;6.15;2.10;;;;;;;;;;507983;29;1426;-89
2022/07/14 00:45:57;;;;;;;4.00;2.00;;;;;;;;;;510152;29;1339;-89
2022/07/14 00:46:12;;;;;;;2.40;1.80;;;;;;;;;;511049;29;1202;-89
2022/07/14 00:46:27;;;;;;;2.72;1.92;;;;;;;;;;509338;29;1344;-88
2022/07/14 00:46:43;;;;;;;3.43;2.00;;;;;;;;;;510116;29;1286;-88
2022/07/14 00:46:58;;;;;;;3.33;2.00;;;;;;;;;;510151;29;1166;-89
2022/07/14 00:47:14;;;;;;;3.93;2.10;;;;;;;;;;510140;29;1198;-88
2022/07/14 00:47:30;;;;;;;3.92;2.00;;;;;;;;;;510229;29;1424;-89
2022/07/14 00:47:47;;;;;;;3.40;2.10;;;;;;;;;;509987;29;1413;-88
2022/07/14 00:48:02;;;;;;;3.40;1.90;;;;;;;;;;510009;29;1226;-89
2022/07/14 00:48:19;;;;;;;2.88;1.75;;;;;;;;;;508215;29;1445;-89
2022/07/14 00:48:34;;;;;;;3.20;1.80;;;;;;;;;;506292;29;1548;-88
2022/07/14 00:48:49;;;;;;;4.18;2.05;;;;;;;;;;506281;29;909;-89
2022/07/14 00:49:05;;;;;;;3.13;2.10;;;;;;;;;;510093;29;1182;-89
2022/07/14 00:49:37;;;;;;;4.40;2.10;;;;;;;;;;510053;29;1282;-89
2022/07/14 00:49:53;;;;;;;2.88;1.90;;;;;;;;;;508456;29;1392;-89
2022/07/14 00:50:11;;;;;;;3.25;2.15;;;;;;;;;;509755;29;1384;-89
2022/07/14 00:50:26;;;;;;;3.05;2.00;;;;;;;;;;510191;29;1281;-89
2022/07/14 00:50:42;;;;;;;3.03;1.93;;;;;;;;;;510245;29;1964;-89
2022/07/14 00:50:58;;;;;;;3.88;1.95;;;;;;;;;;510257;29;1368;-89
2022/07/14 00:51:14;;;;;;;4.00;1.90;;;;;;;;;;511208;29;889;-89
2022/07/14 00:51:30;;;;;;;3.63;2.00;;;;;;;;;;512225;29;1426;-89
2022/07/14 00:51:45;;;;;;;3.33;2.10;;;;;;;;;;512125;29;1208;-88
2022/07/14 00:52:00;;;;;;;3.27;2.20;;;;;;;;;;511595;29;873;-88
2022/07/14 00:52:16;;;;;;;3.45;2.17;;;;;;;;;;509792;29;846;-89
2022/07/14 00:52:31;;;;;;;3.57;2.07;;;;;;;;;;508130;29;1421;-89
2022/07/14 00:52:49;;;;;;;3.97;2.03;;;;;;;;;;506617;29;1257;-88
2022/07/14 00:53:08;;;;;;;3.97;2.00;;;;;;;;;;508197;29;814;-89
2022/07/14 00:53:24;;;;;;;3.30;2.00;;;;;;;;;;506223;29;1446;-89
2022/07/14 00:53:39;;;;;;;3.60;2.03;;;;;;;;;;507260;29;1188;-88
2022/07/14 00:53:56;;;;;;;3.60;2.05;;;;;;;;;;508215;29;1457;-88
2022/07/14 00:54:11;;;;;;;3.25;2.00;;;;;;;;;;508288;29;1257;-89
2022/07/14 00:54:26;;;;;;;3.70;1.90;;;;;;;;;;508253;29;1406;-89
2022/07/14 00:54:42;;;;;;;4.63;2.00;;;;;;;;;;509462;29;813;-89
2022/07/14 00:54:58;;;;;;;4.47;2.10;;;;;;;;;;510794;29;1248;-89
2022/07/14 00:55:14;;;;;;;3.75;2.10;;;;;;;;;;512162;29;1016;-88
2022/07/14 00:55:30;;;;;;;3.42;2.00;;;;;;;;;;511516;29;1338;-89
2022/07/14 00:55:45;;;;;;;3.13;1.90;;;;;;;;;;510053;29;1319;-88
2022/07/14 00:56:00;;;;;;;2.73;2.00;;;;;;;;;;510237;29;797;-89
2022/07/14 00:56:16;;;;;;;2.10;1.90;;;;;;;;;;508183;29;1233;-89
2022/07/14 00:56:31;;;;;;;2.27;2.00;;;;;;;;;;508402;29;940;-89
2022/07/14 00:56:47;;;;;;;3.47;2.10;;;;;;;;;;508571;29;1323;-88
2022/07/14 00:57:02;;;;;;;3.43;2.03;;;;;;;;;;509928;29;1178;-89
2022/07/14 00:57:18;;;;;;;2.93;1.93;;;;;;;;;;509775;29;1257;-88
2022/07/14 00:57:34;;;;;;;3.13;2.10;;;;;;;;;;506604;29;1281;-89
2022/07/14 00:57:50;;;;;;;2.87;2.00;;;;;;;;;;506273;29;1206;-89
2022/07/14 00:58:06;;;;;;;3.10;1.75;;;;;;;;;;504791;29;873;-88
2022/07/14 00:58:21;;;;;;;4.10;2.00;;;;;;;;;;506327;29;1286;-88
2022/07/14 00:58:36;;;;;;;4.13;2.10;;;;;;;;;;504293;29;1205;-88
2022/07/14 00:58:52;;;;;;;4.68;2.00;;;;;;;;;;506172;29;933;-88
2022/07/14 00:59:07;;;;;;;4.10;1.93;;;;;;;;;;506000;29;1181;-89
2022/07/14 00:59:23;;;;;;;2.73;1.80;;;;;;;;;;506631;29;893;-88
2022/07/14 00:59:38;;;;;;;2.83;1.70;;;;;;;;;;508354;29;1190;-89
2022/07/14 00:59:54;;;;;;;2.80;1.80;;;;;;;;;;510028;29;1227;-88
2022/07/14 01:00:11;;;;;;;2.67;2.00;;;;;;;;;;510427;29;1321;-88
2022/07/14 01:00:27;;;;;;;2.53;2.00;;;;;;;;;;509126;29;1433;-89
2022/07/14 01:00:42;;;;;;;3.58;1.90;;;;;;;;;;508448;29;1405;-89
2022/07/14 01:00:58;;;;;;;3.50;2.00;;;;;;;;;;508491;29;1418;-89
2022/07/14 01:01:13;;;;;;;2.65;1.92;;;;;;;;;;509723;29;897;-88
2022/07/14 01:01:31;;;;;;;2.90;2.00;;;;;;;;;;509830;29;1008;-89
2022/07/14 01:01:46;;;;;;;2.90;1.92;;;;;;;;;;509832;29;1534;-89
2022/07/14 01:02:02;;;;;;;2.90;1.90;;;;;;;;;;509660;29;1214;-88
2022/07/14 01:02:18;;;;;;;2.75;1.77;;;;;;;;;;509939;29;1055;-88
2022/07/14 01:02:34;;;;;;;2.30;1.70;;;;;;;;;;511014;29;885;-88
2022/07/14 01:02:50;;;;;;;2.50;1.80;;;;;;;;;;511991;29;1190;-89
2022/07/14 01:03:05;;;;;;;3.13;1.88;;;;;;;;;;511981;28;1318;-89
2022/07/14 01:03:21;;;;;;;3.47;1.90;;;;;;;;;;510182;29;1173;-88
2022/07/14 01:03:37;;;;;;;3.40;2.00;;;;;;;;;;509621;29;866;-88
2022/07/14 01:03:52;;;;;;;3.05;2.10;;;;;;;;;;506732;29;1244;-88
2022/07/14 01:04:07;;;;;;;2.80;2.00;;;;;;;;;;508065;29;1216;-89
2022/07/14 01:04:23;;;;;;;3.97;2.00;;;;;;;;;;508101;29;1136;-89
2022/07/14 01:04:38;;;;;;;4.13;2.08;;;;;;;;;;508071;29;1368;-89
2022/07/14 01:04:53;;;;;;;4.33;2.10;;;;;;;;;;505941;29;1397;-89
2022/07/14 01:05:09;;;;;;;6.20;2.00;;;;;;;;;;507776;29;1154;-89
2022/07/14 01:05:24;;;;;;;5.45;1.90;;;;;;;;;;509681;29;1240;-89
2022/07/14 01:05:39;;;;;;;4.63;1.83;;;;;;;;;;505821;29;1282;-89
2022/07/14 01:05:55;;;;;;;4.70;2.00;;;;;;;;;;506056;29;870;-89
2022/07/14 01:06:10;;;;;;;3.60;2.10;;;;;;;;;;506063;29;838;-89
2022/07/14 01:06:26;;;;;;;4.13;2.10;;;;;;;;;;506153;29;861;-89
2022/07/14 01:06:41;;;;;;;4.60;2.08;;;;;;;;;;506499;29;1297;-88
2022/07/14 01:06:57;;;;;;;3.70;2.00;;;;;;;;;;508183;29;976;-87
2022/07/14 01:07:12;;;;;;;3.65;2.00;;;;;;;;;;508640;29;965;-88
2022/07/14 01:07:28;;;;;;;4.43;1.90;;;;;;;;;;508490;29;1355;-87
2022/07/14 01:07:44;;;;;;;4.03;2.08;;;;;;;;;;510078;29;1287;-88
2022/07/14 01:07:59;;;;;;;3.55;2.10;;;;;;;;;;510166;29;1095;-88
2022/07/14 01:08:15;;;;;;;3.57;2.00;;;;;;;;;;510054;29;901;-88
2022/07/14 01:08:30;;;;;;;3.53;2.10;;;;;;;;;;510862;29;1547;-88
2022/07/14 01:08:45;;;;;;;3.45;2.20;;;;;;;;;;508351;29;1060;-88
2022/07/14 01:09:01;;;;;;;3.70;2.10;;;;;;;;;;508327;29;1297;-88
2022/07/14 01:09:16;;;;;;;3.53;1.98;;;;;;;;;;510348;29;1226;-87
2022/07/14 01:09:32;;;;;;;3.00;2.00;;;;;;;;;;511911;29;1279;-88
2022/07/14 01:09:48;;;;;;;2.95;2.00;;;;;;;;;;510380;29;904;-88
2022/07/14 01:10:04;;;;;;;2.67;1.90;;;;;;;;;;510224;29;1313;-88
2022/07/14 01:10:20;;;;;;;3.67;1.92;;;;;;;;;;511825;29;1344;-87
2022/07/14 01:10:36;;;;;;;3.80;1.90;;;;;;;;;;511995;29;1161;-88
2022/07/14 01:10:51;;;;;;;1.90;1.70;;;;;;;;;;510045;29;1922;-87
2022/07/14 01:11:08;;;;;;;3.03;1.80;;;;;;;;;;511096;29;1095;-87
2022/07/14 01:11:24;;;;;;;3.47;2.03;;;;;;;;;;511974;28;1221;-88
2022/07/14 01:11:39;;;;;;;2.33;2.00;;;;;;;;;;512040;29;888;-87
2022/07/14 01:11:55;;;;;;;3.30;1.83;;;;;;;;;;511938;29;903;-88
2022/07/14 01:12:11;;;;;;;4.20;2.00;;;;;;;;;;512096;29;1373;-88
2022/07/14 01:12:26;;;;;;;3.60;2.13;;;;;;;;;;511425;29;1086;-88
2022/07/14 01:12:46;;;;;;;3.45;2.10;;;;;;;;;;508082;29;1172;-88
2022/07/14 01:13:04;;;;;;;3.80;2.00;;;;;;;;;;508095;29;1379;-88
2022/07/14 01:13:19;;;;;;;2.58;1.90;;;;;;;;;;508163;29;1355;-88
2022/07/14 01:13:39;;;;;;;3.60;1.90;;;;;;;;;;510049;29;1509;-86
2022/07/14 01:13:54;;;;;;;4.15;2.03;;;;;;;;;;512217;29;880;-87
2022/07/14 01:14:10;;;;;;;2.97;2.00;;;;;;;;;;511974;29;1299;-87
2022/07/14 01:14:26;;;;;;;3.77;1.90;;;;;;;;;;512191;29;893;-88
2022/07/14 01:14:41;;;;;;;4.10;1.97;;;;;;;;;;513956;28;1231;-87
2022/07/14 01:14:57;;;;;;;4.13;2.10;;;;;;;;;;511117;29;1205;-87
2022/07/14 01:15:17;;;;;;;3.60;2.07;;;;;;;;;;511215;29;1390;-88
2022/07/14 01:15:33;;;;;;;2.63;1.90;;;;;;;;;;510412;29;980;-87
2022/07/14 01:15:48;;;;;;;3.60;1.93;;;;;;;;;;512259;29;1323;-88
2022/07/14 01:16:05;;;;;;;3.00;2.10;;;;;;;;;;509314;29;1328;-88
2022/07/14 01:16:21;;;;;;;2.67;2.10;;;;;;;;;;510306;29;1418;-87
2022/07/14 01:16:36;;;;;;;2.97;2.10;;;;;;;;;;508361;29;1215;-88
2022/07/14 01:16:55;;;;;;;3.07;2.00;;;;;;;;;;510293;29;1307;-88
2022/07/14 01:17:11;;;;;;;3.30;2.20;;;;;;;;;;510236;29;1432;-87
2022/07/14 01:17:26;;;;;;;3.03;2.23;;;;;;;;;;508335;29;1209;-87
2022/07/14 01:17:42;;;;;;;2.75;2.10;;;;;;;;;;512280;29;1197;-88
2022/07/14 01:17:58;;;;;;;3.05;2.00;;;;;;;;;;512253;29;1238;-88
2022/07/14 01:18:13;;;;;;;3.80;1.90;;;;;;;;;;512260;29;785;-88
2022/07/14 01:18:29;;;;;;;3.03;1.80;;;;;;;;;;510579;29;1514;-88
2022/07/14 01:18:46;;;;;;;3.03;1.80;;;;;;;;;;512278;29;1186;-88
2022/07/14 01:19:02;;;;;;;3.90;2.00;;;;;;;;;;510209;29;1426;-87
2022/07/14 01:19:17;;;;;;;4.30;2.07;;;;;;;;;;510257;29;880;-86
2022/07/14 01:19:33;;;;;;;3.70;1.90;;;;;;;;;;511438;29;1379;-86
2022/07/14 01:19:49;;;;;;;3.38;2.00;;;;;;;;;;510040;29;869;-88
2022/07/14 01:20:05;;;;;;;4.50;2.10;;;;;;;;;;510228;29;1379;-87
2022/07/14 01:20:22;;;;;;;4.05;1.90;;;;;;;;;;510854;29;1274;-87
2022/07/14 01:20:37;;;;;;;2.47;1.90;;;;;;;;;;512203;29;853;-87
2022/07/14 01:20:53;;;;;;;2.50;2.00;;;;;;;;;;512882;28;809;-87
2022/07/14 01:21:08;;;;;;;2.40;2.00;;;;;;;;;;514046;28;1176;-87
2022/07/14 01:21:25;;;;;;;2.20;1.80;;;;;;;;;;513304;28;1192;-87
2022/07/14 01:21:41;;;;;;;2.47;1.80;;;;;;;;;;512263;29;864;-87
2022/07/14 01:21:57;;;;;;;2.63;2.00;;;;;;;;;;512298;29;883;-87
2022/07/14 01:22:12;;;;;;;2.63;2.00;;;;;;;;;;513217;28;900;-87
2022/07/14 01:22:28;;;;;;;2.00;1.80;;;;;;;;;;514586;28;1363;-87
2022/07/14 01:22:46;;;;;;;2.07;1.80;;;;;;;;;;514620;28;1173;-87
2022/07/14 01:23:02;;;;;;;2.40;1.90;;;;;;;;;;514700;28;895;-88
2022/07/14 01:23:17;;;;;;;2.58;1.98;;;;;;;;;;514499;28;971;-87
2022/07/14 01:23:33;;;;;;;3.20;2.07;;;;;;;;;;513029;29;1287;-88
2022/07/14 01:23:48;;;;;;;3.35;1.80;;;;;;;;;;512746;29;1238;-87
2022/07/14 01:24:04;;;;;;;3.30;1.80;;;;;;;;;;512995;29;1178;-87
2022/07/14 01:24:20;;;;;;;3.22;1.95;;;;;;;;;;512750;29;1325;-87
2022/07/14 01:24:35;;;;;;;2.78;1.98;;;;;;;;;;511997;29;1256;-87
2022/07/14 01:24:51;;;;;;;2.47;2.00;;;;;;;;;;510655;29;1257;-87
2022/07/14 01:25:07;;;;;;;2.55;1.90;;;;;;;;;;512936;29;1197;-87
2022/07/14 01:25:22;;;;;;;2.60;1.95;;;;;;;;;;513540;28;896;-88
2022/07/14 01:25:38;;;;;;;2.60;1.92;;;;;;;;;;515010;28;809;-87
2022/07/14 01:25:53;;;;;;;2.30;1.83;;;;;;;;;;514523;28;1296;-87
2022/07/14 01:26:09;;;;;;;2.10;1.77;;;;;;;;;;514319;28;1177;-87
2022/07/14 01:26:24;;;;;;;2.38;1.80;;;;;;;;;;513220;28;1272;-87
2022/07/14 01:26:39;;;;;;;2.60;2.10;;;;;;;;;;515193;28;1022;-86
2022/07/14 01:26:55;;;;;;;2.70;2.00;;;;;;;;;;514173;28;1363;-87
2022/07/14 01:27:11;;;;;;;2.55;1.85;;;;;;;;;;514068;28;1263;-87
2022/07/14 01:27:27;;;;;;;2.03;1.80;;;;;;;;;;514130;28;907;-87
2022/07/14 01:27:43;;;;;;;2.53;1.88;;;;;;;;;;512090;29;1181;-88
2022/07/14 01:27:59;;;;;;;2.75;1.80;;;;;;;;;;512042;29;860;-87
2022/07/14 01:28:14;;;;;;;2.47;1.80;;;;;;;;;;510146;29;1205;-87
2022/07/14 01:28:29;;;;;;;2.97;1.93;;;;;;;;;;510107;29;809;-88
2022/07/14 01:28:45;;;;;;;3.07;1.90;;;;;;;;;;511995;29;1255;-87
2022/07/14 01:29:00;;;;;;;2.25;1.90;;;;;;;;;;512093;29;817;-87
2022/07/14 01:29:16;;;;;;;2.30;1.87;;;;;;;;;;512061;29;837;-87
2022/07/14 01:29:32;;;;;;;2.60;2.00;;;;;;;;;;512469;28;1237;-87
2022/07/14 01:29:47;;;;;;;2.53;2.00;;;;;;;;;;511941;29;1152;-87
2022/07/14 01:30:03;;;;;;;3.35;1.90;;;;;;;;;;511913;29;1305;-87
2022/07/14 01:30:19;;;;;;;3.47;1.90;;;;;;;;;;511932;29;1213;-86
2022/07/14 01:30:34;;;;;;;3.88;1.80;;;;;;;;;;509471;29;1321;-87
2022/07/14 01:30:50;;;;;;;3.30;1.90;;;;;;;;;;507867;29;1927;-86
2022/07/14 01:31:05;;;;;;;2.30;1.90;;;;;;;;;;508092;29;790;-87
2022/07/14 01:31:21;;;;;;;2.10;1.80;;;;;;;;;;508457;29;841;-87
2022/07/14 01:31:36;;;;;;;2.40;1.80;;;;;;;;;;512360;28;1308;-86
2022/07/14 01:31:52;;;;;;;3.43;2.00;;;;;;;;;;514053;28;1279;-86
2022/07/14 01:32:08;;;;;;;4.10;2.10;;;;;;;;;;511798;29;1275;-87
2022/07/14 01:32:23;;;;;;;2.95;2.03;;;;;;;;;;511705;29;1198;-87
2022/07/14 01:32:39;;;;;;;3.47;2.00;;;;;;;;;;511763;29;813;-87
2022/07/14 01:32:54;;;;;;;3.72;1.90;;;;;;;;;;511758;28;1234;-87
2022/07/14 01:33:10;;;;;;;2.20;1.90;;;;;;;;;;512152;29;1295;-87
2022/07/14 01:33:26;;;;;;;2.95;1.90;;;;;;;;;;512050;29;901;-87
2022/07/14 01:33:41;;;;;;;3.57;1.90;;;;;;;;;;511417;29;1294;-87
2022/07/14 01:33:56;;;;;;;2.60;1.85;;;;;;;;;;510528;29;876;-87
2022/07/14 01:34:14;;;;;;;2.60;1.80;;;;;;;;;;511647;29;1378;-88
2022/07/14 01:34:30;;;;;;;3.50;1.92;;;;;;;;;;510455;29;903;-87
2022/07/14 01:34:45;;;;;;;4.03;1.97;;;;;;;;;;510823;29;1043;-88
2022/07/14 01:35:01;;;;;;;3.28;1.90;;;;;;;;;;512104;29;1260;-87
2022/07/14 01:35:17;;;;;;;2.05;1.80;;;;;;;;;;512054;29;1024;-87
2022/07/14 01:35:32;;;;;;;2.20;1.80;;;;;;;;;;510495;29;1198;-87
2022/07/14 01:35:48;;;;;;;3.35;1.77;;;;;;;;;;512096;29;844;-87
2022/07/14 01:36:03;;;;;;;4.73;1.83;;;;;;;;;;511844;29;1394;-87
2022/07/14 01:36:19;;;;;;;5.63;1.90;;;;;;;;;;509839;29;1206;-87
2022/07/14 01:36:35;;;;;;;5.05;2.00;;;;;;;;;;509908;29;1285;-87
2022/07/14 01:36:52;;;;;;;3.20;2.00;;;;;;;;;;510084;29;992;-87
2022/07/14 01:37:08;;;;;;;2.53;1.90;;;;;;;;;;510174;29;1387;-87
2022/07/14 01:37:24;;;;;;;2.80;2.00;;;;;;;;;;510579;29;1349;-87
2022/07/14 01:37:40;;;;;;;2.42;1.83;;;;;;;;;;512072;29;1043;-87
2022/07/14 01:37:55;;;;;;;2.43;1.80;;;;;;;;;;511149;29;1193;-87
2022/07/14 01:38:11;;;;;;;2.50;1.73;;;;;;;;;;508859;29;1192;-87
2022/07/14 01:38:26;;;;;;;2.63;1.80;;;;;;;;;;509471;29;880;-87